Portada
METAR-TAF:

METAR-TAF

Aeropuertos :

Córdoba, España

Aeropuerto de Córdoba

latitud: 37-51N, longitud: 004-51W, altitud: 90 m

Observación

El informe se hizo hace 23 minutos, a las 18:00 UTC
Viento 2 kt del oeste
Temperatura 29°C
Humedad 31%
Presión 1016 hPa
Visibilidad 10 km o más
sin nubes por debajo de 1500 m y sin presencia de cumulonimbus.

METAR: LEBA 231800Z 28002KT CAVOK 29/10 Q1016

Hora: 20:23 (18:23 UTC)

Pronóstico

El informe se hizo hace 1 hora y 23 minutos, a las 17:00 UTC
Pronóstico válido del 23 a las 18 UTC al 24 a las 03 UTC
Viento 4 kt del oeste-suroeste
Visibilidad 10 km o más
sin nubes por debajo de 1500 m y sin presencia de cumulonimbus.

TAF: LEBA 231700Z 2318/2403 24004KT CAVOK

Observaciones y pronósticos meteorológicos de más de 4000 aeropuertos (mensajes METAR y TAF).

Los puntos amarillos y rojos representan las estaciones disponibles.

Ponga el ratón en el punto deseado para ver el nombre de la estación.

Haga clic para ver las observaciones y los pronósticos meteorológicos.

Para cambiar el mapa : haga clic en los botones verdes con una cruz de color negro para hacer un zoom, en el botón verde con un guión para alejar o en las flechas verdes para mapas adyacentes.


METAR-TAF: